Time;durP1;ratioP1;P1;durP2;ratioP2;P2;SDS_P1;SDS_P2;PMS_P1;PMS_P2;Temp;Humidity;BMP_temperature;BMP_pressure;BME280_temperature;BME280_humidity;BME280_pressure;Samples;Min_cycle;Max_cycle;Signal;HPM_P1;HPM_P2
2024/01/17 00:01:58;;;;;;;20.05;9.18;;;-0.70;99.90;;;;;;5026452;28;20080;-68
2024/01/17 00:04:24;;;;;;;15.05;8.88;;;-0.70;99.90;;;;;;5027974;28;20125;-66
2024/01/17 00:06:50;;;;;;;13.18;8.43;;;-0.70;99.90;;;;;;5023668;28;20030;-67
2024/01/17 00:09:16;;;;;;;17.73;10.18;;;-0.70;99.90;;;;;;5028146;28;20411;-67
2024/01/17 00:11:42;;;;;;;13.93;8.60;;;-0.70;99.90;;;;;;5022544;28;20044;-68
2024/01/17 00:14:08;;;;;;;15.90;9.87;;;-0.70;99.90;;;;;;5025474;28;20025;-66
2024/01/17 00:16:34;;;;;;;19.67;8.75;;;-0.70;99.90;;;;;;5023836;28;20280;-67
2024/01/17 00:19:00;;;;;;;17.70;9.70;;;-0.70;99.90;;;;;;5032184;28;20102;-68
2024/01/17 00:21:25;;;;;;;20.10;10.87;;;-0.70;99.90;;;;;;5034537;28;20207;-66
2024/01/17 00:23:51;;;;;;;16.67;9.80;;;-0.70;99.90;;;;;;5032130;28;20344;-67
2024/01/17 00:26:16;;;;;;;13.70;9.37;;;-0.70;99.90;;;;;;5033473;28;20033;-68
2024/01/17 00:28:42;;;;;;;19.23;9.37;;;-0.70;99.90;;;;;;5031493;28;20034;-69
2024/01/17 00:31:08;;;;;;;14.03;9.20;;;-0.70;99.90;;;;;;5036211;28;20037;-68
2024/01/17 00:33:34;;;;;;;17.73;10.38;;;-0.70;99.90;;;;;;5030022;28;20034;-68
2024/01/17 00:36:00;;;;;;;18.00;10.95;;;-0.70;99.90;;;;;;5032238;28;20037;-68
2024/01/17 00:38:25;;;;;;;14.60;9.63;;;-0.70;99.90;;;;;;5031295;28;20049;-68
2024/01/17 00:40:51;;;;;;;19.30;11.50;;;-0.60;99.90;;;;;;5032156;28;20461;-68
2024/01/17 00:43:17;;;;;;;14.87;9.37;;;-0.70;99.90;;;;;;5033266;28;20037;-68
2024/01/17 00:45:42;;;;;;;15.80;10.07;;;-0.70;99.90;;;;;;5029982;28;20511;-67
2024/01/17 00:48:08;;;;;;;16.33;10.60;;;-0.70;99.90;;;;;;5031105;28;20319;-68
2024/01/17 00:50:34;;;;;;;22.80;11.33;;;-0.70;99.90;;;;;;5032216;28;20049;-67
2024/01/17 00:52:59;;;;;;;19.45;11.75;;;-0.70;99.90;;;;;;5030328;28;20500;-68
2024/01/17 00:55:25;;;;;;;14.05;10.80;;;-0.70;99.90;;;;;;5030707;28;20059;-69
2024/01/17 00:57:51;;;;;;;23.77;12.30;;;-0.70;99.90;;;;;;5030706;28;20076;-67
2024/01/17 01:00:17;;;;;;;17.60;11.13;;;-0.70;99.90;;;;;;5032718;28;20370;-69
2024/01/17 01:02:43;;;;;;;16.27;11.32;;;-0.70;99.90;;;;;;5029504;28;20045;-67
2024/01/17 01:05:11;;;;;;;16.45;11.27;;;-0.70;99.90;;;;;;5030534;28;20042;-67
2024/01/17 01:07:37;;;;;;;17.50;11.25;;;-0.80;99.90;;;;;;5030511;28;20061;-67
2024/01/17 01:10:03;;;;;;;21.70;11.55;;;-0.80;99.90;;;;;;5037467;28;20419;-68
2024/01/17 01:12:28;;;;;;;19.15;11.25;;;-0.80;99.90;;;;;;5030942;28;20043;-67
2024/01/17 01:14:54;;;;;;;21.97;12.00;;;-0.80;99.90;;;;;;5025562;28;20049;-67
2024/01/17 01:17:19;;;;;;;23.77;13.67;;;-0.80;99.90;;;;;;5031072;28;20056;-67
2024/01/17 01:19:45;;;;;;;20.00;12.70;;;-0.90;99.90;;;;;;5031464;28;20484;-67
2024/01/17 01:22:11;;;;;;;18.13;13.27;;;-0.90;99.90;;;;;;5030062;28;20053;-67
2024/01/17 01:24:37;;;;;;;18.15;12.63;;;-0.90;99.90;;;;;;5027587;28;20052;-67
2024/01/17 01:27:02;;;;;;;16.67;11.23;;;-0.90;99.90;;;;;;5029224;28;20053;-67
2024/01/17 01:29:28;;;;;;;18.70;12.60;;;-0.90;99.90;;;;;;5030009;28;20092;-67
2024/01/17 01:31:54;;;;;;;19.13;13.65;;;-0.90;99.90;;;;;;5029738;28;20061;-67
2024/01/17 01:34:20;;;;;;;19.07;12.93;;;-1.00;99.90;;;;;;5030931;28;20112;-67
2024/01/17 01:36:45;;;;;;;19.87;12.33;;;-1.00;99.90;;;;;;5032496;28;20107;-67
2024/01/17 01:39:11;;;;;;;18.43;12.93;;;-1.00;99.90;;;;;;5029799;28;20045;-67
2024/01/17 01:41:37;;;;;;;22.55;13.30;;;-1.00;99.90;;;;;;5027860;28;20059;-68
2024/01/17 01:44:02;;;;;;;18.50;13.73;;;-1.00;99.90;;;;;;5029335;28;20099;-67
2024/01/17 01:46:30;;;;;;;17.13;12.40;;;-1.00;99.90;;;;;;5028660;28;20085;-67
2024/01/17 01:48:58;;;;;;;36.10;14.13;;;-1.00;99.90;;;;;;5029013;28;20033;-68
2024/01/17 01:51:24;;;;;;;20.80;12.90;;;-1.00;99.90;;;;;;5028949;28;20033;-67
2024/01/17 01:53:55;;;;;;;22.95;13.13;;;-1.00;99.90;;;;;;5028466;28;20034;-67
2024/01/17 01:56:26;;;;;;;19.15;13.23;;;-1.00;99.90;;;;;;5029093;28;20037;-67
2024/01/17 01:58:53;;;;;;;23.85;13.80;;;-1.10;99.90;;;;;;5026535;28;20048;-68
2024/01/17 02:01:20;;;;;;;26.05;14.27;;;-1.00;99.90;;;;;;5029557;28;20041;-67
2024/01/17 02:03:46;;;;;;;;;;;-1.00;99.90;;;;;;5028442;28;20080;-67
2024/01/17 02:06:17;;;;;;;20.77;12.80;;;-1.00;99.90;;;;;;5029158;28;20344;-68
2024/01/17 02:08:43;;;;;;;20.75;13.93;;;-1.00;99.90;;;;;;5027416;28;20112;-68
2024/01/17 02:11:09;;;;;;;20.45;12.80;;;-1.00;99.90;;;;;;5028039;28;20049;-68
2024/01/17 02:13:35;;;;;;;23.20;13.73;;;-1.00;99.90;;;;;;5025452;28;20562;-67
2024/01/17 02:16:01;;;;;;;23.57;14.10;;;-1.00;99.90;;;;;;5028819;28;20025;-67
2024/01/17 02:18:26;;;;;;;19.55;12.60;;;-0.90;99.90;;;;;;5026672;28;20053;-67
2024/01/17 02:20:52;;;;;;;25.73;13.77;;;-0.90;99.90;;;;;;5031486;28;20061;-67
2024/01/17 02:23:25;;;;;;;19.73;13.30;;;-0.90;99.90;;;;;;5027745;28;20041;-68
2024/01/17 02:25:52;;;;;;;26.27;14.05;;;-0.90;99.90;;;;;;5029891;28;20056;-67
2024/01/17 02:28:18;;;;;;;22.63;13.07;;;-0.90;99.90;;;;;;5026863;28;20067;-67
2024/01/17 02:30:44;;;;;;;24.27;13.43;;;-0.90;99.90;;;;;;5028633;28;20116;-68
2024/01/17 02:33:12;;;;;;;20.60;12.57;;;-1.00;99.90;;;;;;5028432;28;20561;-67
2024/01/17 02:35:38;;;;;;;28.20;12.50;;;-1.00;99.90;;;;;;5028199;28;20051;-67
2024/01/17 02:38:03;;;;;;;19.93;13.00;;;-0.90;99.90;;;;;;5028850;28;20045;-68
2024/01/17 02:40:29;;;;;;;24.97;13.97;;;-1.00;99.90;;;;;;5027227;28;20147;-68
2024/01/17 02:42:55;;;;;;;18.57;12.10;;;-1.00;99.90;;;;;;5011651;28;20049;-68
2024/01/17 02:45:21;;;;;;;21.10;13.90;;;-0.90;99.90;;;;;;5010797;28;20380;-68
2024/01/17 02:47:46;;;;;;;24.70;13.93;;;-1.00;99.90;;;;;;5028013;28;20045;-67
2024/01/17 02:50:14;;;;;;;19.83;13.27;;;-1.00;99.90;;;;;;5031755;28;20103;-67
2024/01/17 02:52:47;;;;;;;20.15;12.95;;;-0.90;99.90;;;;;;5027140;28;20044;-67
2024/01/17 02:55:15;;;;;;;18.60;11.55;;;-1.00;99.90;;;;;;5027105;28;20037;-67
2024/01/17 02:57:41;;;;;;;17.00;11.40;;;-0.90;99.90;;;;;;5027293;28;20095;-68
2024/01/17 03:00:08;;;;;;;18.83;12.85;;;-1.00;99.90;;;;;;5024161;28;20563;-67
2024/01/17 03:02:35;;;;;;;15.68;12.23;;;-1.00;99.90;;;;;;5027551;28;20037;-68
2024/01/17 03:05:01;;;;;;;21.75;13.23;;;-1.00;99.90;;;;;;5025231;28;20045;-67
2024/01/17 03:07:26;;;;;;;19.75;12.48;;;-1.00;99.90;;;;;;5024972;28;20048;-67
2024/01/17 03:09:52;;;;;;;19.63;11.63;;;-1.00;99.90;;;;;;5027244;28;20033;-68
2024/01/17 03:12:20;;;;;;;15.83;11.60;;;-1.00;99.90;;;;;;5025943;28;20041;-68
2024/01/17 03:14:45;;;;;;;19.33;11.02;;;-1.10;99.90;;;;;;5018321;28;20465;-66
2024/01/17 03:17:12;;;;;;;16.98;11.57;;;-1.00;99.90;;;;;;5029955;28;20461;-68
2024/01/17 03:19:38;;;;;;;20.10;11.38;;;-1.00;99.90;;;;;;5027573;28;20048;-68
2024/01/17 03:22:04;;;;;;;17.63;10.32;;;-1.10;99.90;;;;;;5031091;28;20045;-67
2024/01/17 03:24:30;;;;;;;21.95;13.60;;;-1.10;99.90;;;;;;5009832;28;20064;-67
2024/01/17 03:26:56;;;;;;;12.05;9.70;;;-1.10;99.90;;;;;;5028773;28;20095;-68
2024/01/17 03:29:21;;;;;;;18.90;11.10;;;-1.10;99.90;;;;;;5026685;28;20057;-69
2024/01/17 03:31:47;;;;;;;17.73;11.23;;;-1.20;99.90;;;;;;5031891;28;20041;-67
2024/01/17 03:34:13;;;;;;;18.73;11.87;;;-1.10;99.90;;;;;;5035958;28;20474;-67
2024/01/17 03:36:39;;;;;;;21.17;12.25;;;-1.10;99.90;;;;;;5024696;28;20117;-70
2024/01/17 03:39:05;;;;;;;17.55;11.07;;;-1.20;99.90;;;;;;5026313;28;20136;-68
2024/01/17 03:41:31;;;;;;;18.42;10.38;;;-1.20;99.90;;;;;;5025868;28;20435;-67
2024/01/17 03:43:57;;;;;;;21.53;11.97;;;-1.10;99.90;;;;;;5024833;28;20080;-68
2024/01/17 03:46:24;;;;;;;19.83;11.82;;;-1.10;99.90;;;;;;5027816;28;20272;-67
2024/01/17 03:48:50;;;;;;;22.05;11.13;;;-1.20;99.90;;;;;;5026606;28;20052;-67
2024/01/17 03:51:16;;;;;;;15.52;11.45;;;-1.20;99.90;;;;;;5027532;28;20033;-67
2024/01/17 03:53:41;;;;;;;19.23;11.32;;;-1.20;99.90;;;;;;5027967;28;20105;-67
2024/01/17 03:56:07;;;;;;;23.67;13.87;;;-1.20;99.90;;;;;;5025943;28;20039;-67
2024/01/17 03:58:32;;;;;;;19.60;11.07;;;-1.20;99.90;;;;;;5027981;28;20391;-67
2024/01/17 04:01:00;;;;;;;20.17;11.13;;;-1.30;99.90;;;;;;5026259;28;20045;-67
2024/01/17 04:03:26;;;;;;;18.08;11.70;;;-1.30;99.90;;;;;;5013023;28;20080;-68
2024/01/17 04:05:51;;;;;;;18.93;11.53;;;-1.30;99.90;;;;;;5026562;28;20115;-67
2024/01/17 04:08:17;;;;;;;16.80;11.77;;;-1.30;99.90;;;;;;5025379;28;20042;-67
2024/01/17 04:10:43;;;;;;;17.97;11.63;;;-1.30;99.90;;;;;;5027134;28;20045;-67
2024/01/17 04:13:08;;;;;;;17.48;10.38;;;-1.30;99.90;;;;;;5030174;28;20163;-68
2024/01/17 04:15:34;;;;;;;21.47;10.83;;;-1.30;99.90;;;;;;5021228;28;20135;-67
2024/01/17 04:17:59;;;;;;;20.87;11.10;;;-1.30;99.90;;;;;;5025785;28;20052;-68
2024/01/17 04:20:25;;;;;;;13.40;9.53;;;-1.30;99.90;;;;;;5027870;28;20524;-68
2024/01/17 04:22:51;;;;;;;17.07;11.00;;;-1.30;99.90;;;;;;5026039;28;20037;-68
2024/01/17 04:25:16;;;;;;;18.03;10.40;;;-1.30;99.90;;;;;;5030466;28;20041;-67
2024/01/17 04:27:42;;;;;;;13.83;10.87;;;-1.30;99.90;;;;;;5026981;28;20030;-68
2024/01/17 04:30:11;;;;;;;30.08;10.65;;;-1.30;99.90;;;;;;5027535;28;20092;-68
2024/01/17 04:32:37;;;;;;;17.83;11.50;;;-1.30;99.90;;;;;;5027260;28;20515;-68
2024/01/17 04:35:04;;;;;;;14.32;9.77;;;-1.20;99.90;;;;;;5027109;28;20044;-68
2024/01/17 04:37:30;;;;;;;21.67;10.20;;;-1.20;99.90;;;;;;5025807;28;20481;-68
2024/01/17 04:39:57;;;;;;;14.52;9.93;;;-1.20;99.90;;;;;;5026527;28;20040;-67
2024/01/17 04:42:22;;;;;;;15.90;10.52;;;-1.20;99.90;;;;;;5042901;28;20123;-68
2024/01/17 04:44:49;;;;;;;21.70;10.50;;;-1.20;99.90;;;;;;5028304;28;20076;-67
2024/01/17 04:47:15;;;;;;;15.38;10.63;;;-1.20;99.90;;;;;;5028969;28;20422;-67
2024/01/17 04:49:42;;;;;;;17.15;11.50;;;-1.20;99.90;;;;;;5026161;28;20472;-67
2024/01/17 04:52:09;;;;;;;20.52;11.45;;;-1.30;99.90;;;;;;5027282;28;20037;-68
2024/01/17 04:54:35;;;;;;;18.35;10.40;;;-1.30;99.90;;;;;;5025768;28;20030;-67
2024/01/17 04:57:00;;;;;;;21.67;11.10;;;-1.30;99.90;;;;;;5028456;28;20036;-68
2024/01/17 04:59:26;;;;;;;14.83;9.13;;;-1.30;99.90;;;;;;5027463;28;20446;-68
2024/01/17 05:01:52;;;;;;;18.27;10.37;;;-1.30;99.90;;;;;;5024844;28;20038;-68
2024/01/17 05:04:18;;;;;;;19.08;10.93;;;-1.30;99.90;;;;;;5026569;28;20043;-67
2024/01/17 05:06:44;;;;;;;19.53;11.20;;;-1.30;99.90;;;;;;5032654;28;20041;-68
2024/01/17 05:09:11;;;;;;;24.55;11.32;;;-1.30;99.90;;;;;;5026263;28;20515;-67
2024/01/17 05:11:37;;;;;;;15.63;10.57;;;-1.30;99.90;;;;;;5031595;28;20122;-68
2024/01/17 05:14:03;;;;;;;21.65;10.00;;;-1.30;99.90;;;;;;5033271;28;20260;-67
2024/01/17 05:16:29;;;;;;;19.70;10.93;;;-1.30;99.90;;;;;;5025595;28;20030;-67
2024/01/17 05:18:55;;;;;;;19.42;9.15;;;-1.30;99.90;;;;;;5031228;28;20400;-67
2024/01/17 05:21:20;;;;;;;17.90;10.37;;;-1.30;99.90;;;;;;5032753;28;20396;-67
2024/01/17 05:23:46;;;;;;;17.77;9.90;;;-1.30;99.90;;;;;;5033133;28;20662;-67
2024/01/17 05:26:12;;;;;;;18.67;8.73;;;-1.30;99.90;;;;;;5030450;28;20045;-67
2024/01/17 05:28:37;;;;;;;20.03;10.60;;;-1.30;99.90;;;;;;5031266;28;20068;-67
2024/01/17 05:31:04;;;;;;;14.20;10.47;;;-1.40;99.90;;;;;;5028553;28;20075;-68
2024/01/17 05:33:30;;;;;;;16.23;10.20;;;-1.40;99.90;;;;;;5036467;28;20041;-67
2024/01/17 05:35:55;;;;;;;14.27;11.02;;;-1.40;99.90;;;;;;5033049;28;20139;-68
2024/01/17 05:38:21;;;;;;;14.55;8.95;;;-1.40;99.90;;;;;;5027873;28;20037;-67
2024/01/17 05:40:47;;;;;;;15.00;10.37;;;-1.40;99.90;;;;;;5028185;28;20051;-68
2024/01/17 05:43:13;;;;;;;11.85;8.93;;;-1.50;99.90;;;;;;5027294;28;20073;-67
2024/01/17 05:45:39;;;;;;;15.82;11.20;;;-1.50;99.90;;;;;;5030101;28;20076;-68
2024/01/17 05:48:05;;;;;;;15.63;10.70;;;-1.50;99.90;;;;;;5032059;28;20451;-68
2024/01/17 05:50:31;;;;;;;19.80;9.55;;;-1.50;99.90;;;;;;5029111;28;20044;-68
2024/01/17 05:52:56;;;;;;;20.47;10.77;;;-1.50;99.90;;;;;;5028931;28;20116;-68
2024/01/17 05:55:22;;;;;;;16.37;10.13;;;-1.50;99.90;;;;;;5029513;28;20408;-68
2024/01/17 05:57:48;;;;;;;13.27;9.53;;;-1.60;99.90;;;;;;5029666;28;20624;-67
2024/01/17 06:00:14;;;;;;;14.38;9.75;;;-1.60;99.90;;;;;;5009982;28;20095;-67
2024/01/17 06:02:41;;;;;;;21.17;12.25;;;-1.60;99.90;;;;;;5029528;28;20040;-67
2024/01/17 06:05:07;;;;;;;15.77;9.55;;;-1.60;99.90;;;;;;5028944;28;20045;-66
2024/01/17 06:07:33;;;;;;;14.13;8.85;;;-1.60;99.90;;;;;;5029450;28;20105;-68
2024/01/17 06:09:59;;;;;;;13.13;9.70;;;-1.60;99.90;;;;;;5028882;28;20258;-68
2024/01/17 06:12:24;;;;;;;16.50;10.53;;;-1.60;99.90;;;;;;5029873;28;20075;-67
2024/01/17 06:14:50;;;;;;;16.23;9.40;;;-1.60;99.90;;;;;;5028859;28;20385;-68
2024/01/17 06:17:16;;;;;;;13.85;9.20;;;-1.60;99.90;;;;;;5035870;28;20036;-68
2024/01/17 06:19:42;;;;;;;16.33;9.07;;;-1.70;99.90;;;;;;5035294;28;20037;-67
2024/01/17 06:22:08;;;;;;;14.20;9.43;;;-1.70;99.90;;;;;;5023987;28;20112;-67
2024/01/17 06:24:34;;;;;;;;;;;-1.70;99.90;;;;;;5031251;28;20096;-67
2024/01/17 06:27:00;;;;;;;19.30;9.25;;;-1.70;99.90;;;;;;5028251;28;19925;-68
2024/01/17 06:29:26;;;;;;;13.38;9.48;;;-1.70;99.90;;;;;;5031034;28;20500;-67
2024/01/17 06:31:55;;;;;;;15.88;8.93;;;-1.70;99.90;;;;;;5027781;28;20041;-68
2024/01/17 06:34:21;;;;;;;22.42;11.68;;;-1.70;99.90;;;;;;5031668;28;20076;-68
2024/01/17 06:36:46;;;;;;;14.17;8.50;;;-1.80;99.90;;;;;;5027714;28;20076;-67
2024/01/17 06:39:12;;;;;;;14.45;9.10;;;-1.70;99.90;;;;;;5027752;28;20512;-67
2024/01/17 06:41:38;;;;;;;15.38;9.82;;;-1.80;99.90;;;;;;5029592;28;20548;-68
2024/01/17 06:44:04;;;;;;;14.43;8.00;;;-1.80;99.90;;;;;;5026716;28;20454;-68
2024/01/17 06:46:29;;;;;;;19.10;8.70;;;-1.80;99.90;;;;;;5030080;28;20455;-68
2024/01/17 06:48:55;;;;;;;17.70;8.77;;;-1.80;99.90;;;;;;5028211;28;20030;-67
2024/01/17 06:51:20;;;;;;;16.45;8.93;;;-1.80;99.90;;;;;;5028322;28;20038;-67
2024/01/17 06:53:46;;;;;;;20.33;8.70;;;-1.80;99.90;;;;;;5014744;28;20480;-68
2024/01/17 06:56:12;;;;;;;13.07;8.83;;;-1.80;99.90;;;;;;5027041;28;20121;-67
2024/01/17 06:58:37;;;;;;;14.17;8.63;;;-1.80;99.90;;;;;;5029915;28;20095;-68
2024/01/17 07:01:04;;;;;;;17.10;8.83;;;-1.90;99.90;;;;;;5029384;28;20044;-67
2024/01/17 07:03:29;;;;;;;15.60;9.02;;;-1.90;99.90;;;;;;5025342;28;20045;-67
2024/01/17 07:05:55;;;;;;;22.07;9.60;;;-1.90;99.90;;;;;;5027313;28;20037;-67
2024/01/17 07:08:21;;;;;;;20.25;10.15;;;-1.90;99.90;;;;;;5026504;28;20042;-67
2024/01/17 07:10:46;;;;;;;15.53;8.23;;;-1.90;99.90;;;;;;5030192;28;20049;-66
2024/01/17 07:13:12;;;;;;;17.87;9.33;;;-1.90;99.90;;;;;;5026121;28;20502;-68
2024/01/17 07:15:38;;;;;;;15.53;9.77;;;-1.90;99.90;;;;;;5027568;28;20788;-67
2024/01/17 07:18:04;;;;;;;16.63;9.33;;;-2.00;99.90;;;;;;5034097;28;20488;-68
2024/01/17 07:20:29;;;;;;;16.20;10.30;;;-2.00;99.90;;;;;;5026281;28;20123;-68
2024/01/17 07:22:55;;;;;;;15.20;8.57;;;-2.00;99.90;;;;;;5027052;28;20033;-67
2024/01/17 07:25:21;;;;;;;15.10;9.65;;;-2.00;99.90;;;;;;5032978;28;20041;-67
2024/01/17 07:27:47;;;;;;;18.08;9.25;;;-2.00;99.90;;;;;;5027150;28;20048;-66
2024/01/17 07:30:14;;;;;;;16.20;9.57;;;-2.00;99.90;;;;;;5024464;28;20084;-67
2024/01/17 07:32:40;;;;;;;14.32;8.68;;;-2.00;99.90;;;;;;5026378;28;20037;-66
2024/01/17 07:35:07;;;;;;;17.30;8.73;;;-2.00;99.90;;;;;;5033595;28;20033;-67
2024/01/17 07:37:33;;;;;;;16.15;9.48;;;-2.00;99.90;;;;;;5018961;28;20373;-70
2024/01/17 07:39:59;;;;;;;12.60;7.75;;;-2.00;99.90;;;;;;5030792;28;20124;-68
2024/01/17 07:42:25;;;;;;;13.15;9.65;;;-2.00;99.90;;;;;;5007957;28;20116;-68
2024/01/17 07:44:51;;;;;;;14.63;10.57;;;-1.90;99.90;;;;;;5025151;28;20049;-68
2024/01/17 07:47:16;;;;;;;23.55;9.57;;;-1.90;99.90;;;;;;5021474;28;20033;-68
2024/01/17 07:49:43;;;;;;;14.32;8.98;;;-1.90;99.90;;;;;;5026067;28;20569;-68
2024/01/17 07:52:09;;;;;;;17.58;10.15;;;-1.90;99.90;;;;;;5048934;28;20099;-68
2024/01/17 07:54:36;;;;;;;12.55;9.65;;;-1.90;99.90;;;;;;5039168;28;20060;-70
2024/01/17 07:57:02;;;;;;;14.02;9.98;;;-1.90;99.90;;;;;;5028730;28;20047;-68
2024/01/17 07:59:28;;;;;;;19.08;10.32;;;-1.80;99.90;;;;;;5026353;28;20041;-68
2024/01/17 08:01:54;;;;;;;15.73;10.37;;;-1.80;99.90;;;;;;5027155;28;20044;-67
2024/01/17 08:04:20;;;;;;;13.77;9.77;;;-1.80;99.90;;;;;;5023232;28;20095;-68
2024/01/17 08:06:46;;;;;;;18.85;9.48;;;-1.80;99.90;;;;;;5022684;28;20495;-67
2024/01/17 08:09:21;;;;;;;15.40;9.05;;;-1.80;99.90;;;;;;5030265;28;20394;-68
2024/01/17 08:11:48;;;;;;;17.50;9.60;;;-1.80;99.90;;;;;;5014637;28;20433;-67
2024/01/17 08:14:14;;;;;;;13.52;9.05;;;-1.80;99.90;;;;;;5020803;28;20037;-67
2024/01/17 08:16:40;;;;;;;13.63;10.32;;;-1.80;99.90;;;;;;5029229;28;20045;-66
2024/01/17 08:19:06;;;;;;;13.57;9.53;;;-1.80;99.90;;;;;;5022906;28;20403;-68
2024/01/17 08:21:31;;;;;;;16.77;9.80;;;-1.80;99.90;;;;;;5023354;28;20281;-70
2024/01/17 08:23:59;;;;;;;15.23;9.07;;;-1.80;99.90;;;;;;5023205;28;20459;-67
2024/01/17 08:26:25;;;;;;;14.30;8.68;;;-1.70;99.90;;;;;;5021174;28;20461;-67
2024/01/17 08:28:51;;;;;;;18.02;10.10;;;-1.80;99.90;;;;;;5004058;28;20030;-67
2024/01/17 08:31:16;;;;;;;18.17;9.75;;;-1.80;99.90;;;;;;5013616;28;20087;-67
2024/01/17 08:33:42;;;;;;;17.27;9.93;;;-1.70;99.90;;;;;;5021694;28;20029;-66
2024/01/17 08:36:08;;;;;;;15.77;9.50;;;-1.70;99.90;;;;;;5026618;28;20034;-68
2024/01/17 08:38:34;;;;;;;16.80;9.57;;;-1.70;99.90;;;;;;5028294;28;20416;-68
2024/01/17 08:41:00;;;;;;;14.40;8.73;;;-1.70;99.90;;;;;;5012040;28;21091;-67
2024/01/17 08:43:26;;;;;;;15.85;9.07;;;-1.70;99.90;;;;;;5026700;28;20104;-67
2024/01/17 08:45:51;;;;;;;17.63;9.77;;;-1.60;99.90;;;;;;5029077;28;20041;-67
2024/01/17 08:48:17;;;;;;;13.43;9.10;;;-1.60;99.90;;;;;;5024471;28;20037;-66
2024/01/17 08:50:42;;;;;;;16.23;8.60;;;-1.60;99.90;;;;;;5015351;28;20068;-65
2024/01/17 08:53:09;;;;;;;11.00;8.73;;;-1.60;99.90;;;;;;5019985;28;20041;-66
2024/01/17 08:55:34;;;;;;;15.60;9.27;;;-1.50;99.90;;;;;;5021685;28;20085;-66
2024/01/17 08:58:00;;;;;;;12.95;8.82;;;-1.50;99.90;;;;;;5028216;28;20497;-67
2024/01/17 09:00:26;;;;;;;12.48;8.43;;;-1.50;99.90;;;;;;5006128;28;20080;-67
2024/01/17 09:02:52;;;;;;;12.77;8.67;;;-1.40;99.90;;;;;;5026169;28;20412;-66
2024/01/17 09:05:20;;;;;;;17.98;9.60;;;-1.40;99.90;;;;;;5026404;28;20045;-66
2024/01/17 09:07:48;;;;;;;15.75;7.78;;;-1.40;99.90;;;;;;5028814;28;20033;-66
2024/01/17 09:10:17;;;;;;;14.05;8.40;;;-1.30;99.90;;;;;;5026917;28;20199;-66
2024/01/17 09:12:44;;;;;;;16.27;9.38;;;-1.30;99.90;;;;;;5024890;28;20077;-66
2024/01/17 09:15:10;;;;;;;14.93;9.10;;;-1.30;99.90;;;;;;5029209;28;20145;-68
2024/01/17 09:17:36;;;;;;;16.45;9.30;;;-1.20;99.90;;;;;;5034272;28;20120;-66
2024/01/17 09:20:03;;;;;;;19.27;7.97;;;-1.20;99.90;;;;;;5025754;28;20091;-67
2024/01/17 09:22:29;;;;;;;20.10;10.27;;;-1.20;99.90;;;;;;5023833;28;20050;-65
2024/01/17 09:24:54;;;;;;;14.20;8.23;;;-1.10;99.90;;;;;;5026770;28;20041;-66
2024/01/17 09:27:20;;;;;;;16.93;8.70;;;-1.10;99.90;;;;;;5022609;28;20045;-66
2024/01/17 09:29:46;;;;;;;14.03;8.10;;;-1.10;99.90;;;;;;5018726;28;20054;-66
2024/01/17 09:32:14;;;;;;;16.93;9.23;;;-1.10;99.90;;;;;;5024815;28;20931;-66
2024/01/17 09:34:41;;;;;;;16.50;8.32;;;-1.00;99.90;;;;;;5018735;28;20045;-65
2024/01/17 09:37:07;;;;;;;15.73;8.77;;;-1.00;99.90;;;;;;5018651;28;20042;-66
2024/01/17 09:39:33;;;;;;;14.30;8.23;;;-1.00;99.90;;;;;;5021585;28;20052;-65
2024/01/17 09:42:02;;;;;;;14.40;8.37;;;-1.00;99.90;;;;;;5020087;28;20060;-66
2024/01/17 09:44:27;;;;;;;14.65;7.60;;;-0.90;99.90;;;;;;5023394;28;20452;-66
2024/01/17 09:46:58;;;;;;;16.05;9.27;;;-0.90;99.90;;;;;;5020607;28;20584;-65
2024/01/17 09:49:23;;;;;;;18.58;8.48;;;-0.90;99.90;;;;;;5005939;28;20077;-65
2024/01/17 09:51:50;;;;;;;11.93;8.77;;;-0.90;99.90;;;;;;5005578;28;20273;-65
2024/01/17 09:54:18;;;;;;;15.65;9.13;;;-0.90;99.90;;;;;;5024086;28;20487;-67
2024/01/17 09:56:46;;;;;;;11.77;8.43;;;-0.80;99.90;;;;;;5020708;28;20038;-68
2024/01/17 09:59:17;;;;;;;16.08;8.70;;;-0.80;99.90;;;;;;5019708;28;20029;-66
2024/01/17 10:01:45;;;;;;;16.35;9.32;;;-0.70;99.90;;;;;;5023248;28;20383;-65
2024/01/17 10:04:15;;;;;;;12.63;8.48;;;-0.70;99.90;;;;;;5020122;28;20042;-65
2024/01/17 10:06:44;;;;;;;12.20;9.07;;;-0.60;99.90;;;;;;5022803;28;20464;-66
2024/01/17 10:09:10;;;;;;;15.63;9.40;;;-0.60;99.90;;;;;;5000981;28;20022;-67
2024/01/17 10:11:36;;;;;;;15.88;8.30;;;-0.60;99.90;;;;;;5022909;28;20550;-65
2024/01/17 10:14:03;;;;;;;11.98;8.23;;;-0.60;99.90;;;;;;5020922;28;20082;-65
2024/01/17 10:16:28;;;;;;;;;;;-0.50;99.90;;;;;;5009287;28;20044;-67
2024/01/17 10:18:54;;;;;;;11.68;8.55;;;-0.50;99.90;;;;;;5027188;28;19996;-66
2024/01/17 10:21:21;;;;;;;14.55;9.60;;;-0.50;99.90;;;;;;5023009;28;20400;-66
2024/01/17 10:23:47;;;;;;;17.73;9.85;;;-0.40;99.90;;;;;;5021037;28;20044;-68
2024/01/17 10:26:13;;;;;;;10.83;8.00;;;-0.40;99.90;;;;;;5008083;28;20041;-64
2024/01/17 10:28:39;;;;;;;;;;;-0.40;99.90;;;;;;5011705;28;20045;-67
2024/01/17 10:31:05;;;;;;;16.67;9.63;;;-0.40;99.90;;;;;;5028219;28;21043;-66
2024/01/17 10:33:32;;;;;;;16.50;9.82;;;-0.30;99.90;;;;;;5029157;28;20170;-65
2024/01/17 10:35:59;;;;;;;14.50;8.82;;;-0.30;99.90;;;;;;5025524;28;20041;-67
2024/01/17 10:38:31;;;;;;;22.60;9.30;;;-0.30;99.90;;;;;;5025138;28;20076;-65
2024/01/17 10:41:05;;;;;;;15.60;8.35;;;-0.30;99.90;;;;;;5022885;28;20471;-65
2024/01/17 10:43:31;;;;;;;16.90;9.02;;;-0.30;99.90;;;;;;5026191;28;20041;-65
2024/01/17 10:45:56;;;;;;;15.93;10.25;;;-0.40;99.90;;;;;;5029240;28;20063;-65
2024/01/17 10:48:25;;;;;;;14.20;9.50;;;-0.30;99.90;;;;;;5028927;28;20374;-66
2024/01/17 10:50:57;;;;;;;20.50;10.75;;;-0.30;99.90;;;;;;5023698;28;20068;-65
2024/01/17 10:53:24;;;;;;;16.48;9.70;;;-0.30;99.90;;;;;;5026483;28;20038;-65
2024/01/17 10:55:53;;;;;;;17.95;10.85;;;-0.30;99.90;;;;;;5026650;28;20037;-65
2024/01/17 10:58:20;;;;;;;16.15;10.38;;;-0.30;99.90;;;;;;5007742;28;20117;-66
2024/01/17 11:00:49;;;;;;;16.92;10.00;;;-0.30;99.90;;;;;;5008620;28;20052;-65
2024/01/17 11:03:20;;;;;;;12.85;9.18;;;-0.30;99.90;;;;;;5024491;28;20045;-65
2024/01/17 11:05:49;;;;;;;14.30;10.13;;;-0.20;99.90;;;;;;5025645;28;20037;-66
2024/01/17 11:08:16;;;;;;;17.27;9.77;;;-0.20;99.90;;;;;;5020736;28;20034;-65
2024/01/17 11:10:44;;;;;;;20.17;9.68;;;-0.30;99.90;;;;;;5022606;28;20570;-66
2024/01/17 11:13:16;;;;;;;15.75;11.32;;;-0.30;99.90;;;;;;5017799;28;20519;-66
2024/01/17 11:15:43;;;;;;;14.73;9.88;;;-0.30;99.90;;;;;;5020199;28;20455;-66
2024/01/17 11:18:10;;;;;;;18.20;10.18;;;-0.30;99.90;;;;;;5034201;28;20044;-66
2024/01/17 11:20:40;;;;;;;21.38;11.13;;;-0.20;99.90;;;;;;5022667;28;20087;-66
2024/01/17 11:23:08;;;;;;;18.38;10.40;;;-0.20;99.90;;;;;;5023688;28;20152;-67
2024/01/17 11:25:46;;;;;;;19.40;9.68;;;-0.10;99.90;;;;;;5022426;28;21191;-66
2024/01/17 11:28:20;;;;;;;16.30;10.52;;;-0.10;99.90;;;;;;5023479;28;20384;-66
2024/01/17 11:31:12;;;;;;;16.77;11.02;;;-0.10;99.90;;;;;;5022034;28;20049;-65
2024/01/17 11:33:39;;;;;;;15.82;9.38;;;0.00;99.90;;;;;;5022176;28;20617;-68
2024/01/17 11:36:05;;;;;;;16.10;8.93;;;0.00;99.90;;;;;;5022187;28;20037;-65
2024/01/17 11:38:32;;;;;;;20.42;10.38;;;0.00;99.90;;;;;;5017949;28;20040;-65
2024/01/17 11:41:07;;;;;;;17.63;11.38;;;0.00;99.90;;;;;;5024062;28;20142;-66
2024/01/17 11:43:36;;;;;;;19.65;9.70;;;0.00;99.90;;;;;;5022628;28;20042;-66
2024/01/17 11:46:08;;;;;;;19.00;9.35;;;0.00;99.90;;;;;;5024514;28;20045;-67
2024/01/17 11:48:36;;;;;;;12.55;9.93;;;0.00;99.90;;;;;;5024120;28;20119;-64
2024/01/17 11:51:15;;;;;;;22.33;10.85;;;0.00;99.90;;;;;;5021617;28;20044;-65
2024/01/17 11:53:42;;;;;;;19.25;10.60;;;0.00;99.90;;;;;;5016026;28;20040;-66
2024/01/17 11:56:09;;;;;;;18.30;10.98;;;0.00;99.90;;;;;;5022045;28;20135;-66
2024/01/17 11:58:42;;;;;;;17.67;10.93;;;0.00;99.90;;;;;;5033232;28;20136;-64
2024/01/17 12:01:14;;;;;;;18.10;10.18;;;0.00;99.90;;;;;;5027748;28;20518;-67
2024/01/17 12:03:42;;;;;;;21.98;11.00;;;0.00;99.90;;;;;;5014303;28;20049;-65
2024/01/17 12:06:09;;;;;;;17.15;10.15;;;0.00;99.90;;;;;;5023055;28;20073;-66
2024/01/17 12:08:36;;;;;;;23.90;10.73;;;-0.10;99.90;;;;;;5021915;28;21423;-68
2024/01/17 12:11:02;;;;;;;16.05;9.60;;;-0.10;99.90;;;;;;5014568;28;20041;-68
2024/01/17 12:13:28;;;;;;;20.95;12.18;;;0.00;99.90;;;;;;5021939;28;20041;-67
2024/01/17 12:15:56;;;;;;;19.87;10.97;;;0.00;99.90;;;;;;5028441;28;20103;-66
2024/01/17 12:18:24;;;;;;;14.73;9.25;;;0.00;99.90;;;;;;5034268;28;20109;-69
2024/01/17 12:20:54;;;;;;;18.95;10.18;;;0.10;99.90;;;;;;5033793;28;20049;-67
2024/01/17 12:23:22;;;;;;;16.70;9.68;;;0.20;99.90;;;;;;5031821;28;20064;-66
2024/01/17 12:25:55;;;;;;;20.55;9.98;;;0.20;99.90;;;;;;5028409;28;20143;-67
2024/01/17 12:28:22;;;;;;;16.15;9.73;;;0.30;99.90;;;;;;5025162;28;20049;-67
2024/01/17 12:31:06;;;;;;;17.38;11.10;;;0.30;99.90;;;;;;5024642;28;20052;-66